Time;durP1;ratioP1;P1;durP2;ratioP2;P2;SDS_P1;SDS_P2;PMS_P1;PMS_P2;Temp;Humidity;BMP_temperature;BMP_pressure;BME280_temperature;BME280_humidity;BME280_pressure;Samples;Min_cycle;Max_cycle;Signal;HPM_P1;HPM_P2
2022/01/17 00:01:06;;;;;;;134.20;73.05;;;;;;;-1.21;100.00;100924.97;4990638;28;20065;-63
2022/01/17 00:03:32;;;;;;;127.00;68.97;;;;;;;-1.49;100.00;100929.78;4994457;28;20061;-64
2022/01/17 00:05:58;;;;;;;126.45;66.90;;;;;;;-1.70;100.00;100924.88;4994986;28;20050;-63
2022/01/17 00:08:23;;;;;;;111.40;60.95;;;;;;;-1.52;100.00;100977.88;4994457;28;20390;-63
2022/01/17 00:10:49;;;;;;;121.53;67.90;;;;;;;-1.82;100.00;100890.41;4993236;28;20035;-63
2022/01/17 00:13:23;;;;;;;108.55;59.90;;;;;;;-1.43;100.00;100970.75;4994869;28;20488;-64
2022/01/17 00:15:55;;;;;;;105.57;60.42;;;;;;;-1.62;100.00;100930.16;4994618;28;20033;-63
2022/01/17 00:20:46;;;;;;;104.50;58.90;;;;;;;-1.28;100.00;100963.81;4994368;28;20093;-63
2022/01/17 00:23:16;;;;;;;106.38;59.75;;;;;;;-1.59;100.00;100972.63;4994286;28;20080;-63
2022/01/17 00:25:41;;;;;;;103.75;56.15;;;;;;;-1.51;100.00;100961.28;4994471;28;20117;-64
2022/01/17 00:28:07;;;;;;;98.05;54.55;;;;;;;-1.36;100.00;100924.44;4992999;28;20169;-63
2022/01/17 00:30:32;;;;;;;93.47;52.60;;;;;;;-1.69;100.00;100928.22;4994212;28;20473;-63
2022/01/17 00:32:58;;;;;;;101.05;55.17;;;;;;;-1.36;100.00;100912.81;4994384;28;20027;-64
2022/01/17 00:35:24;;;;;;;102.47;59.45;;;;;;;-0.95;100.00;100964.09;4993925;28;20033;-64
2022/01/17 00:37:50;;;;;;;93.00;53.05;;;;;;;-1.85;100.00;100961.69;4994269;28;20030;-63
2022/01/17 00:40:16;;;;;;;94.57;55.20;;;;;;;-1.87;100.00;100913.47;4993963;28;20030;-64
2022/01/17 00:42:42;;;;;;;110.88;63.30;;;;;;;-1.31;100.00;100947.91;4994068;28;20053;-64
2022/01/17 00:45:12;;;;;;;112.25;65.32;;;;;;;-1.53;100.00;100966.22;4993970;28;20034;-64
2022/01/17 00:47:37;;;;;;;98.72;57.42;;;;;;;-1.51;100.00;100949.69;4994272;28;20037;-64
2022/01/17 00:50:03;;;;;;;96.35;57.03;;;;;;;-1.82;100.00;100969.28;4993908;28;20034;-63
2022/01/17 00:52:29;;;;;;;106.43;60.50;;;;;;;-1.33;100.00;100951.97;4994147;28;20048;-63
2022/01/17 00:54:54;;;;;;;92.35;56.20;;;;;;;-1.32;100.00;100966.13;4993668;28;20061;-64
2022/01/17 00:57:19;;;;;;;96.22;56.03;;;;;;;-2.00;100.00;100929.59;4993586;28;20034;-63
2022/01/17 00:59:45;;;;;;;106.93;61.22;;;;;;;-1.45;100.00;100912.50;4993970;28;20465;-64
2022/01/17 01:02:10;;;;;;;93.13;52.67;;;;;;;-1.22;100.00;100945.69;5088636;23;20050;-63
2022/01/17 01:04:36;;;;;;;91.50;50.75;;;;;;;-1.47;100.00;100946.50;4661554;28;10000189;-63
2022/01/17 01:07:01;;;;;;;99.35;56.63;;;;;;;-1.90;100.00;100878.47;5008137;28;20033;-63
2022/01/17 01:09:31;;;;;;;103.40;58.17;;;;;;;-1.79;100.00;100932.88;5009785;28;20034;-64
2022/01/17 01:11:57;;;;;;;104.30;61.22;;;;;;;-2.40;100.00;100886.56;5009807;28;20034;-64
2022/01/17 01:14:22;;;;;;;97.28;58.92;;;;;;;-2.36;100.00;100927.34;5008080;28;20056;-63
2022/01/17 01:16:51;;;;;;;112.35;61.17;;;;;;;-1.51;100.00;100907.31;5009684;28;20530;-64
2022/01/17 01:30:05;;;;;;;66.75;40.78;;;;;;;-1.90;100.00;100898.38;5009499;28;20040;-66
2022/01/17 01:32:39;;;;;;;60.22;37.33;;;;;;;-2.28;100.00;100864.63;5009371;28;20036;-63
2022/01/17 01:35:09;;;;;;;49.55;30.55;;;;;;;-2.43;100.00;100878.13;5009054;28;20053;-63
2022/01/17 01:37:35;;;;;;;49.20;28.83;;;;;;;-3.09;100.00;100785.19;5007576;28;20423;-64
2022/01/17 01:40:00;;;;;;;47.10;29.08;;;;;;;-2.41;100.00;100869.94;5008019;28;20033;-63
2022/01/17 01:42:29;;;;;;;50.70;32.08;;;;;;;-2.37;100.00;100863.41;5009170;28;20040;-63
2022/01/17 01:44:54;;;;;;;49.22;30.92;;;;;;;-2.43;100.00;100856.56;5008914;28;20693;-63
2022/01/17 01:47:21;;;;;;;46.60;29.48;;;;;;;-2.29;100.00;100829.72;5008960;28;20114;-64
2022/01/17 01:49:47;;;;;;;48.55;30.02;;;;;;;-2.40;100.00;100801.97;5008936;28;20534;-63
2022/01/17 01:52:12;;;;;;;53.55;31.95;;;;;;;-2.45;100.00;100838.25;5008450;28;20030;-64
2022/01/17 01:54:38;;;;;;;52.30;32.00;;;;;;;-2.74;100.00;100784.91;5008244;28;20056;-63
2022/01/17 01:57:04;;;;;;;54.15;32.20;;;;;;;-2.66;100.00;100786.06;5009384;28;20161;-63
2022/01/17 01:59:29;;;;;;;55.30;32.22;;;;;;;-2.54;100.00;100793.13;5008832;28;20045;-63
2022/01/17 02:01:54;;;;;;;53.72;33.22;;;;;;;-2.54;100.00;100778.19;5007093;28;20069;-63
2022/01/17 02:04:20;;;;;;;50.67;32.30;;;;;;;-2.20;100.00;100803.50;5008175;28;20492;-63
2022/01/17 02:06:46;;;;;;;57.25;34.33;;;;;;;-2.18;100.00;100794.44;5008491;28;20121;-63
2022/01/17 02:09:11;;;;;;;54.78;34.03;;;;;;;-2.16;100.00;100782.91;5008113;28;20088;-63
2022/01/17 02:11:37;;;;;;;62.13;35.50;;;;;;;-2.36;100.00;100807.88;5008351;28;20462;-64
2022/01/17 02:14:04;;;;;;;53.97;33.67;;;;;;;-2.25;100.00;100790.06;5008467;28;20038;-64
2022/01/17 02:16:29;;;;;;;60.13;35.03;;;;;;;-2.47;100.00;100786.72;5007859;28;20109;-64
2022/01/17 02:18:55;;;;;;;57.55;36.33;;;;;;;-1.83;100.00;100803.16;5008219;28;20472;-63
2022/01/17 02:21:45;;;;;;;60.45;34.88;;;;;;;-1.81;100.00;100794.09;5007050;28;20427;-64
2022/01/17 02:24:12;;;;;;;52.00;32.65;;;;;;;-1.38;100.00;100803.88;5008580;28;20022;-64
2022/01/17 02:26:38;;;;;;;53.22;32.22;;;;;;;-1.79;100.00;100788.41;5006646;28;20022;-64
2022/01/17 02:29:03;;;;;;;57.78;34.55;;;;;;;-2.01;100.00;100800.91;5008323;28;20036;-64
2022/01/17 02:31:29;;;;;;;55.13;32.28;;;;;;;-1.89;100.00;100788.88;5008128;28;20045;-65
2022/01/17 02:33:55;;;;;;;56.60;34.42;;;;;;;-2.02;100.00;100741.91;5007836;28;20041;-63
2022/01/17 02:36:21;;;;;;;61.50;35.78;;;;;;;-1.94;100.00;100769.59;5007739;28;20164;-64
2022/01/17 02:38:47;;;;;;;64.43;37.60;;;;;;;-1.99;100.00;100747.00;5007739;28;20108;-64
2022/01/17 02:41:12;;;;;;;62.75;40.00;;;;;;;-1.72;100.00;100769.50;5007689;28;20093;-64
2022/01/17 02:43:39;;;;;;;61.03;39.03;;;;;;;-1.98;100.00;100788.53;5008098;28;20458;-64
2022/01/17 02:48:34;;;;;;;65.38;39.55;;;;;;;-1.91;100.00;100778.00;5007698;28;20427;-63
2022/01/17 02:51:00;;;;;;;66.45;40.45;;;;;;;-1.79;100.00;100780.91;5007213;28;20038;-63
2022/01/17 02:53:26;;;;;;;73.43;43.47;;;;;;;-1.94;100.00;100770.41;5006506;28;20418;-64
2022/01/17 02:55:57;;;;;;;74.07;43.35;;;;;;;-1.78;100.00;100775.13;5007702;28;20029;-64
2022/01/17 02:58:25;;;;;;;70.32;41.88;;;;;;;-2.18;100.00;100789.47;5007829;28;20130;-64
2022/01/17 03:00:53;;;;;;;64.45;39.50;;;;;;;-2.04;100.00;100780.03;5007471;28;20099;-63
2022/01/17 03:03:23;;;;;;;67.07;38.53;;;;;;;-2.18;100.00;100786.16;5006886;28;20832;-63
2022/01/17 03:05:49;;;;;;;60.55;35.47;;;;;;;-2.37;100.00;100711.59;5007415;28;20025;-64
2022/01/17 03:08:16;;;;;;;62.28;38.40;;;;;;;-1.84;100.00;100774.06;5007323;28;20099;-64
2022/01/17 03:10:46;;;;;;;62.63;39.17;;;;;;;-2.13;100.00;100792.13;5006236;28;20450;-63
2022/01/17 03:13:18;;;;;;;61.97;39.28;;;;;;;-2.51;100.00;100798.19;5006124;28;20054;-64
2022/01/17 03:15:46;;;;;;;73.30;40.95;;;;;;;-2.48;100.00;100792.50;5007123;28;20026;-63
2022/01/17 03:18:12;;;;;;;70.38;41.03;;;;;;;-2.26;100.00;100773.44;5007234;28;20642;-63
2022/01/17 03:20:37;;;;;;;67.57;39.30;;;;;;;-2.37;100.00;100776.31;5007370;28;20034;-64
2022/01/17 03:23:04;;;;;;;61.60;35.65;;;;;;;-1.90;100.00;100764.75;5006075;28;20116;-63
2022/01/17 03:25:30;;;;;;;54.80;34.78;;;;;;;-2.42;100.00;100689.06;5007243;28;20121;-63
2022/01/17 03:27:56;;;;;;;51.50;31.58;;;;;;;-2.05;100.00;100724.38;5005717;28;20113;-64
2022/01/17 03:30:25;;;;;;;50.78;31.48;;;;;;;-2.00;100.00;100765.22;5007580;28;20068;-63
2022/01/17 03:32:51;;;;;;;50.53;30.38;;;;;;;-2.41;100.00;100769.53;5007019;28;20034;-64
2022/01/17 03:35:17;;;;;;;48.53;31.83;;;;;;;-2.21;100.00;100753.66;5007542;28;20026;-63
2022/01/17 03:37:44;;;;;;;55.17;33.63;;;;;;;-2.01;100.00;100751.09;5006747;28;20410;-63
2022/01/17 03:40:10;;;;;;;61.72;35.70;;;;;;;-2.28;100.00;100680.44;5006706;28;20034;-63
2022/01/17 03:42:36;;;;;;;58.47;35.53;;;;;;;-2.00;100.00;100739.50;5007195;28;20044;-63
2022/01/17 03:45:07;;;;;;;65.22;37.15;;;;;;;-2.00;100.00;100710.44;5006951;28;20022;-63
2022/01/17 03:47:34;;;;;;;62.05;39.40;;;;;;;-2.60;100.00;100713.28;5006923;28;20032;-64
2022/01/17 03:49:59;;;;;;;69.07;41.03;;;;;;;-2.93;100.00;100682.22;5007441;28;20061;-63
2022/01/17 03:52:25;;;;;;;72.35;40.00;;;;;;;-2.28;100.00;100757.59;5006873;28;20115;-63
2022/01/17 03:54:50;;;;;;;74.72;42.15;;;;;;;-2.20;100.00;100723.84;5007070;28;20467;-63
2022/01/17 03:57:15;;;;;;;66.43;38.83;;;;;;;-2.38;100.00;100703.31;5006175;28;20174;-63
2022/01/17 03:59:41;;;;;;;67.85;40.42;;;;;;;-2.54;100.00;100760.78;5007119;28;20602;-63
2022/01/17 04:02:06;;;;;;;70.53;39.95;;;;;;;-2.70;100.00;100682.25;5007033;28;20046;-64
2022/01/17 04:04:32;;;;;;;61.90;37.83;;;;;;;-1.82;100.00;100745.91;5006441;28;20037;-63
2022/01/17 04:06:57;;;;;;;61.63;38.15;;;;;;;-2.09;100.00;100695.19;5005681;28;20103;-63
2022/01/17 04:09:23;;;;;;;59.53;37.83;;;;;;;-2.35;100.00;100703.41;5007032;28;20116;-63
2022/01/17 04:11:48;;;;;;;60.95;35.38;;;;;;;-2.54;100.00;100712.66;5006929;28;20022;-63
2022/01/17 04:14:16;;;;;;;57.05;36.00;;;;;;;-2.48;100.00;100758.53;5006371;28;20042;-63
2022/01/17 04:16:41;;;;;;;64.95;39.25;;;;;;;-2.20;100.00;100763.66;5005594;28;20191;-63
2022/01/17 04:19:09;;;;;;;95.25;67.45;;;;;;;-2.31;100.00;100737.56;5005595;28;20572;-63
2022/01/17 04:21:35;;;;;;;93.20;65.75;;;;;;;-2.72;100.00;100707.88;5005505;28;20030;-63
2022/01/17 04:24:01;;;;;;;90.35;68.00;;;;;;;-1.94;100.00;100745.50;5007024;28;20650;-63
2022/01/17 04:26:27;;;;;;;65.75;43.60;;;;;;;-2.63;100.00;100702.38;5006166;28;20515;-63
2022/01/17 04:28:52;;;;;;;49.00;31.17;;;;;;;-2.68;100.00;100746.97;5006210;28;20041;-63
2022/01/17 04:31:18;;;;;;;51.17;29.95;;;;;;;-2.99;100.00;100749.13;5006782;28;20033;-63
2022/01/17 04:33:43;;;;;;;52.67;29.23;;;;;;;-2.46;100.00;100734.53;5006761;28;20034;-63
2022/01/17 04:36:09;;;;;;;50.30;28.10;;;;;;;-2.23;100.00;100741.16;5006515;28;20026;-64
2022/01/17 04:38:35;;;;;;;44.67;25.88;;;;;;;-2.55;100.00;100748.25;5006193;28;20057;-62
2022/01/17 04:41:04;;;;;;;47.58;27.23;;;;;;;-2.76;100.00;100751.69;5006729;28;20022;-63
2022/01/17 04:43:55;;;;;;;44.40;26.27;;;;;;;-2.54;100.00;100735.03;5006294;28;20029;-63
2022/01/17 04:46:18;;;;;;;52.30;30.50;;;;;;;-2.46;100.00;100736.16;5005826;28;20406;-63
2022/01/17 04:48:44;;;;;;;48.55;28.05;;;;;;;-2.64;100.00;100704.00;5007678;28;20041;-63
2022/01/17 04:51:10;;;;;;;53.78;31.42;;;;;;;-2.71;100.00;100697.09;5009624;28;20088;-63
2022/01/17 04:53:35;;;;;;;69.22;35.03;;;;;;;-2.70;100.00;100698.81;5009719;28;20507;-62
2022/01/17 04:56:01;;;;;;;82.40;40.45;;;;;;;-2.38;100.00;100740.63;5008032;28;20483;-62
2022/01/17 04:58:26;;;;;;;67.70;37.85;;;;;;;-2.22;100.00;100750.31;5001651;28;20026;-62
2022/01/17 05:00:52;;;;;;;73.57;37.10;;;;;;;-2.29;100.00;100740.94;5003963;28;20117;-63
2022/01/17 05:03:19;;;;;;;74.72;41.28;;;;;;;-2.01;100.00;100750.22;5010061;28;20042;-62
2022/01/17 05:05:45;;;;;;;86.78;46.95;;;;;;;-1.95;100.00;100746.31;5013287;28;20030;-62
2022/01/17 05:08:10;;;;;;;84.25;46.83;;;;;;;-2.61;100.00;100755.53;5012910;28;20029;-62
2022/01/17 05:10:36;;;;;;;88.30;51.40;;;;;;;-2.65;100.00;100745.44;5013184;28;20487;-62
2022/01/17 05:13:02;;;;;;;58.97;37.28;;;;;;;-2.58;100.00;100681.84;5013236;28;20036;-62
2022/01/17 05:15:36;;;;;;;94.55;46.83;;;;;;;-2.65;100.00;100697.31;5011365;28;20119;-61
2022/01/17 05:20:36;;;;;;;76.40;43.50;;;;;;;-2.52;100.00;100697.00;5013229;28;20413;-61
2022/01/17 05:23:01;;;;;;;74.78;38.08;;;;;;;-2.96;100.00;100668.03;5012705;28;20033;-63
2022/01/17 05:25:27;;;;;;;74.22;40.67;;;;;;;-2.68;100.00;100714.66;5012789;28;20025;-63
2022/01/17 05:27:52;;;;;;;60.08;32.10;;;;;;;-2.41;100.00;100703.19;5012647;28;20030;-62
2022/01/17 05:30:20;;;;;;;54.33;33.03;;;;;;;-3.06;100.00;100694.97;5012662;28;20423;-63
2022/01/17 05:32:46;;;;;;;51.30;29.35;;;;;;;-3.02;100.00;100666.94;5011613;28;20048;-62
2022/01/17 05:35:13;;;;;;;45.83;26.55;;;;;;;-2.72;100.00;100668.91;5012501;28;20034;-63
2022/01/17 05:37:39;;;;;;;53.10;29.30;;;;;;;-2.83;100.00;100666.81;5012401;28;20041;-62
2022/01/17 05:40:07;;;;;;;47.20;29.13;;;;;;;-2.99;100.00;100662.91;5012679;28;20025;-62
2022/01/17 05:42:32;;;;;;;51.05;31.00;;;;;;;-3.31;100.00;100665.88;5012452;28;20026;-63
2022/01/17 05:44:58;;;;;;;45.53;24.60;;;;;;;-2.99;100.00;100691.94;5012625;28;20045;-63
2022/01/17 05:47:24;;;;;;;41.80;26.60;;;;;;;-3.43;100.00;100652.97;5012444;28;20541;-62
2022/01/17 05:49:49;;;;;;;42.08;25.90;;;;;;;-3.33;100.00;100659.13;5012209;28;20467;-61
2022/01/17 05:52:15;;;;;;;45.03;27.25;;;;;;;-3.38;100.00;100660.56;5012031;28;20518;-64
2022/01/17 05:54:41;;;;;;;45.55;29.08;;;;;;;-3.62;100.00;100641.47;5012326;28;20088;-63
2022/01/17 05:57:07;;;;;;;53.65;31.52;;;;;;;-3.23;100.00;100708.41;5010990;28;20412;-63
2022/01/17 05:59:33;;;;;;;54.65;32.28;;;;;;;-3.14;100.00;100722.03;5008539;28;20120;-64
2022/01/17 06:01:59;;;;;;;63.00;37.83;;;;;;;-3.10;100.00;100713.03;5011410;28;20145;-63
2022/01/17 06:04:24;;;;;;;65.60;39.75;;;;;;;-3.69;100.00;100647.00;5011595;28;20041;-63
2022/01/17 06:06:50;;;;;;;74.15;42.00;;;;;;;-3.14;100.00;100676.44;5010100;28;20084;-64
2022/01/17 06:09:16;;;;;;;76.75;43.72;;;;;;;-3.74;100.00;100680.72;5011562;28;20061;-63
2022/01/17 06:11:42;;;;;;;87.40;52.90;;;;;;;-3.69;100.00;100673.47;5011433;28;20038;-63
2022/01/17 06:14:09;;;;;;;83.63;48.17;;;;;;;-3.88;100.00;100628.84;5011905;28;20030;-64
2022/01/17 06:16:36;;;;;;;67.85;39.47;;;;;;;-3.82;100.00;100624.06;5010581;28;20096;-63
2022/01/17 06:19:02;;;;;;;66.07;38.70;;;;;;;-3.15;100.00;100694.63;5012259;28;20041;-63
2022/01/17 06:21:28;;;;;;;69.80;41.67;;;;;;;-2.85;100.00;100651.00;5011749;28;20677;-64
2022/01/17 06:23:53;;;;;;;62.72;33.70;;;;;;;-3.52;100.00;100611.22;5011584;28;20113;-64
2022/01/17 06:26:20;;;;;;;69.03;40.22;;;;;;;-3.28;100.00;100637.78;5011776;28;20055;-64
2022/01/17 06:28:46;;;;;;;53.20;31.38;;;;;;;-3.29;100.00;100691.63;5011750;28;20389;-63
2022/01/17 06:31:11;;;;;;;55.53;33.50;;;;;;;-2.68;100.00;100685.66;5010528;28;20034;-64
2022/01/17 06:33:37;;;;;;;59.15;33.28;;;;;;;-2.70;100.00;100681.41;5011658;28;20034;-64
2022/01/17 06:36:03;;;;;;;54.05;32.55;;;;;;;-3.26;100.00;100651.09;5011245;28;20488;-64
2022/01/17 06:38:28;;;;;;;55.08;31.50;;;;;;;-3.77;100.00;100618.53;5010106;28;20030;-64
2022/01/17 06:40:54;;;;;;;49.25;28.95;;;;;;;-3.12;100.00;100670.72;5011543;28;20030;-64
2022/01/17 06:43:19;;;;;;;50.45;30.42;;;;;;;-3.55;100.00;100630.13;5011545;28;20033;-64
2022/01/17 06:45:45;;;;;;;56.70;31.27;;;;;;;-2.83;100.00;100685.06;5011462;28;20037;-64
2022/01/17 06:48:11;;;;;;;78.30;41.05;;;;;;;-3.12;100.00;100690.63;5011460;28;20407;-64
2022/01/17 06:50:37;;;;;;;67.88;39.78;;;;;;;-2.95;100.00;100609.22;5010986;28;20121;-63
2022/01/17 06:53:03;;;;;;;49.80;30.13;;;;;;;1.31;100.00;100692.91;5010110;28;20030;-64
2022/01/17 06:55:28;;;;;;;54.50;31.13;;;;;;;2.01;100.00;100650.00;5011570;28;20061;-64
2022/01/17 06:57:54;;;;;;;79.65;43.80;;;;;;;2.29;100.00;100708.97;5011157;28;20115;-64
2022/01/17 07:00:19;;;;;;;62.58;37.17;;;;;;;2.98;100.00;100702.53;5011486;28;20030;-64
2022/01/17 07:02:45;;;;;;;62.90;35.20;;;;;;;3.40;100.00;100674.63;5009792;28;20061;-63
2022/01/17 07:05:11;;;;;;;55.88;33.78;;;;;;;2.90;100.00;100641.34;5010998;28;20038;-63
2022/01/17 07:07:36;;;;;;;60.22;35.40;;;;;;;2.07;100.00;100667.66;5011201;28;20030;-63
2022/01/17 07:10:03;;;;;;;47.78;30.08;;;;;;;1.34;100.00;100612.88;5010995;28;20029;-64
2022/01/17 07:12:29;;;;;;;46.70;30.30;;;;;;;-0.34;100.00;100653.16;5010429;28;20018;-64
2022/01/17 07:14:54;;;;;;;41.35;27.65;;;;;;;-0.95;100.00;100618.19;5010921;28;20052;-64
2022/01/17 07:17:19;;;;;;;48.95;33.20;;;;;;;-0.77;100.00;100664.44;5011001;28;20096;-64
2022/01/17 07:19:45;;;;;;;56.65;33.20;;;;;;;-1.16;100.00;100636.69;5010897;28;20058;-64
2022/01/17 07:22:11;;;;;;;53.03;31.27;;;;;;;-0.28;100.00;100615.84;5010866;28;20022;-64
2022/01/17 07:24:37;;;;;;;47.70;29.95;;;;;;;-0.97;100.00;100627.28;5010892;28;20096;-64
2022/01/17 07:27:02;;;;;;;49.25;29.85;;;;;;;-1.68;100.00;100613.50;5010981;28;20408;-64
2022/01/17 07:29:28;;;;;;;48.22;28.73;;;;;;;-1.89;100.00;100593.72;5010788;28;20025;-64
2022/01/17 07:31:54;;;;;;;83.25;39.45;;;;;;;-2.31;100.00;100603.16;5009148;28;20026;-64
2022/01/17 07:34:20;;;;;;;65.65;34.65;;;;;;;-2.32;100.00;100558.31;5010503;28;20473;-64
2022/01/17 07:36:46;;;;;;;36.63;23.42;;;;;;;-1.61;100.00;100602.91;5011010;28;20543;-64
2022/01/17 07:39:11;;;;;;;32.78;21.88;;;;;;;-1.95;100.00;100634.25;5010756;28;20021;-64
2022/01/17 07:41:37;;;;;;;37.78;21.98;;;;;;;-1.35;100.00;100589.59;5010781;28;20048;-64
2022/01/17 07:44:04;;;;;;;41.70;25.88;;;;;;;-0.39;100.00;100602.25;5010649;28;20030;-64
2022/01/17 07:46:55;;;;;;;52.30;30.13;;;;;;;-0.25;100.00;100536.03;5009130;28;20514;-64
2022/01/17 07:49:19;;;;;;;43.90;25.20;;;;;;;-1.06;100.00;100553.84;5010314;28;20049;-64
2022/01/17 07:51:47;;;;;;;39.70;23.73;;;;;;;-1.01;100.00;100573.13;5010722;28;20128;-63
2022/01/17 07:54:15;;;;;;;39.90;22.33;;;;;;;-0.29;100.00;100585.84;5010706;28;20026;-64
2022/01/17 07:56:45;;;;;;;52.42;28.73;;;;;;;0.03;100.00;100626.59;5010602;28;20434;-64
2022/01/17 07:59:12;;;;;;;43.30;25.70;;;;;;;-0.09;100.00;100528.09;5010456;28;20076;-64
2022/01/17 08:01:38;;;;;;;34.10;20.77;;;;;;;-1.16;100.00;100611.75;5010106;28;20347;-64
2022/01/17 08:04:05;;;;;;;42.35;23.35;;;;;;;-0.32;100.00;100601.59;5010498;28;20026;-65
2022/01/17 08:06:36;;;;;;;34.03;21.48;;;;;;;-0.46;100.00;100640.34;5009204;28;20066;-64
2022/01/17 08:09:04;;;;;;;37.38;23.90;;;;;;;-0.14;100.00;100577.06;5010573;28;20066;-65
2022/01/17 08:11:29;;;;;;;52.25;31.25;;;;;;;-0.02;100.00;100627.34;5010128;28;20092;-65
2022/01/17 08:13:54;;;;;;;52.05;29.35;;;;;;;0.06;100.00;100659.19;5010179;28;20455;-64
2022/01/17 08:16:20;;;;;;;37.78;24.35;;;;;;;-0.34;100.00;100628.19;5010710;28;20433;-64
2022/01/17 08:18:45;;;;;;;58.45;31.40;;;;;;;-0.40;100.00;100670.50;5010311;28;20071;-65
2022/01/17 08:21:11;;;;;;;50.53;29.38;;;;;;;0.07;100.00;100699.19;5010315;28;20032;-65
2022/01/17 08:23:37;;;;;;;43.45;26.75;;;;;;;0.59;100.00;100734.69;5012272;28;20030;-65
2022/01/17 08:26:03;;;;;;;33.97;21.98;;;;;;;0.22;100.00;100741.22;5012567;28;20041;-65
2022/01/17 08:28:29;;;;;;;54.70;32.28;;;;;;;0.79;100.00;100700.94;5012733;28;20049;-65
2022/01/17 08:30:54;;;;;;;30.35;20.73;;;;;;;0.48;100.00;100667.69;5012416;28;20472;-64
2022/01/17 08:33:21;;;;;;;36.70;23.08;;;;;;;0.76;100.00;100625.00;5014051;28;20036;-64
2022/01/17 08:35:47;;;;;;;38.05;23.65;;;;;;;0.72;100.00;100648.25;5013976;28;20029;-65
2022/01/17 08:38:12;;;;;;;47.88;28.50;;;;;;;0.62;100.00;100603.84;5013663;28;20030;-64
2022/01/17 08:40:37;;;;;;;39.45;25.05;;;;;;;1.06;100.00;100600.63;5012352;28;20030;-64
2022/01/17 08:43:03;;;;;;;30.83;19.25;;;;;;;0.39;100.00;100550.84;5013512;28;20037;-64
2022/01/17 08:45:29;;;;;;;32.78;19.67;;;;;;;0.39;100.00;100568.34;5012371;28;20034;-64
2022/01/17 08:47:55;;;;;;;36.75;22.58;;;;;;;0.49;100.00;100570.22;5013581;28;20032;-64
2022/01/17 08:50:22;;;;;;;33.78;20.52;;;;;;;0.48;100.00;100550.16;5012664;28;20472;-64
2022/01/17 08:52:48;;;;;;;40.88;21.75;;;;;;;0.26;100.00;100496.38;5013458;28;20034;-64
2022/01/17 08:55:15;;;;;;;36.67;21.13;;;;;;;0.44;100.00;100503.41;5013358;28;20029;-64
2022/01/17 08:57:41;;;;;;;28.52;19.08;;;;;;;0.52;100.00;100536.91;5013400;28;20080;-64
2022/01/17 09:00:12;;;;;;;35.50;21.20;;;;;;;0.69;100.00;100520.63;5013336;28;20817;-64
2022/01/17 09:02:39;;;;;;;35.42;22.33;;;;;;;0.77;100.00;100494.94;5012059;28;20042;-64
2022/01/17 09:05:04;;;;;;;34.33;20.00;;;;;;;0.52;100.00;100527.78;5013299;28;20041;-64
2022/01/17 09:07:30;;;;;;;44.38;26.00;;;;;;;0.76;100.00;100509.91;5011698;28;20030;-64
2022/01/17 09:09:55;;;;;;;64.55;35.80;;;;;;;0.50;100.00;100434.38;5013142;28;20034;-64
2022/01/17 09:12:20;;;;;;;46.60;26.80;;;;;;;1.14;100.00;100486.47;5013457;28;20401;-64
2022/01/17 09:14:46;;;;;;;54.35;28.25;;;;;;;0.97;100.00;100446.94;5013203;28;20041;-64
2022/01/17 09:17:12;;;;;;;78.68;40.63;;;;;;;1.01;100.00;100442.00;5011811;28;20353;-64
2022/01/17 09:19:39;;;;;;;52.63;30.38;;;;;;;1.11;100.00;100473.88;5011786;28;20033;-64
2022/01/17 09:22:07;;;;;;;41.35;26.73;;;;;;;1.24;100.00;100500.84;5013177;28;20130;-64
2022/01/17 09:24:33;;;;;;;38.75;23.60;;;;;;;1.42;100.00;100532.88;5012830;28;20033;-64
2022/01/17 09:26:59;;;;;;;45.10;28.40;;;;;;;1.71;100.00;100509.97;5012699;28;20038;-64
2022/01/17 09:29:24;;;;;;;51.78;28.95;;;;;;;1.48;100.00;100443.66;5012917;28;20026;-65
2022/01/17 09:31:49;;;;;;;55.03;28.13;;;;;;;1.57;100.00;100462.97;5011622;28;20499;-64
2022/01/17 09:34:15;;;;;;;120.55;42.78;;;;;;;1.84;100.00;100500.16;5012088;28;20041;-64
2022/01/17 09:36:41;;;;;;;36.45;22.48;;;;;;;1.78;100.00;100441.59;5012756;28;20112;-64
2022/01/17 09:39:08;;;;;;;39.78;24.67;;;;;;;2.01;100.00;100438.56;5012661;28;20026;-64
2022/01/17 09:41:33;;;;;;;35.35;21.73;;;;;;;2.16;100.00;100471.38;5012175;28;20026;-64
2022/01/17 09:44:01;;;;;;;37.38;22.10;;;;;;;2.35;100.00;100470.81;5012575;28;20052;-63
2022/01/17 09:46:33;;;;;;;68.47;32.05;;;;;;;2.10;100.00;100431.19;5012477;28;20034;-64
2022/01/17 09:49:13;;;;;;;35.40;23.00;;;;;;;2.22;100.00;100393.75;5012481;28;20112;-63
2022/01/17 09:54:24;;;;;;;79.28;33.50;;;;;;;2.74;100.00;100420.22;5012576;28;20377;-64
2022/01/17 09:56:51;;;;;;;99.82;38.70;;;;;;;2.64;100.00;100430.19;5012416;28;20424;-64
2022/01/17 09:59:17;;;;;;;62.05;29.13;;;;;;;2.96;100.00;100460.63;5011969;28;20197;-64
2022/01/17 10:01:43;;;;;;;97.43;38.42;;;;;;;3.33;100.00;100440.06;5012430;28;20022;-64
2022/01/17 10:04:09;;;;;;;68.20;30.13;;;;;;;3.07;100.00;100413.06;5012080;28;20088;-64
2022/01/17 10:06:36;;;;;;;210.13;63.58;;;;;;;3.25;100.00;100421.56;5010525;28;20038;-63
2022/01/17 10:09:08;;;;;;;140.45;46.55;;;;;;;3.41;100.00;100408.31;5012276;28;20458;-64
2022/01/17 10:11:34;;;;;;;58.78;37.90;;;;;;;3.61;100.00;100415.13;5012309;28;20404;-64
2022/01/17 10:13:59;;;;;;;168.60;67.03;;;;;;;3.82;100.00;100417.81;5011799;28;20056;-64
2022/01/17 10:16:26;;;;;;;133.88;58.20;;;;;;;4.16;100.00;100422.19;5012105;28;20470;-63
2022/01/17 10:18:55;;;;;;;85.50;49.10;;;;;;;3.95;100.00;100419.56;5011680;28;20129;-64
2022/01/17 10:21:54;;;;;;;48.80;31.55;;;;;;;4.25;100.00;100410.50;5011676;28;20474;-64
2022/01/17 10:35:17;;;;;;;35.22;24.95;;;;;;;5.11;100.00;100380.47;5011770;28;20046;-64
2022/01/17 10:38:03;;;;;;;38.50;25.40;;;;;;;5.34;100.00;100365.38;5011401;28;20025;-64
2022/01/17 10:40:32;;;;;;;33.72;23.67;;;;;;;5.21;100.00;100268.75;5011721;28;20037;-64
2022/01/17 10:43:00;;;;;;;35.40;23.85;;;;;;;5.30;100.00;100335.97;5011509;28;20029;-64
2022/01/17 10:45:33;;;;;;;50.88;32.25;;;;;;;5.62;100.00;100315.75;5011732;28;20034;-64
2022/01/17 10:48:01;;;;;;;46.78;29.92;;;;;;;6.09;100.00;100346.72;5009065;28;20029;-64
2022/01/17 10:50:40;;;;;;;46.80;32.40;;;;;;;6.20;100.00;100337.41;5009765;28;20117;-64
2022/01/17 10:53:09;;;;;;;45.03;29.20;;;;;;;5.73;100.00;100301.41;5010904;28;20045;-64
2022/01/17 10:55:38;;;;;;;38.55;27.38;;;;;;;6.12;100.00;100302.09;5011268;28;20053;-64
2022/01/17 10:58:09;;;;;;;40.38;28.25;;;;;;;6.26;100.00;100296.16;5010932;28;20041;-64
2022/01/17 11:00:37;;;;;;;39.85;27.27;;;;;;;6.88;100.00;100322.69;5011067;28;20029;-64
2022/01/17 11:03:11;;;;;;;38.28;27.13;;;;;;;6.90;100.00;100315.94;5009648;28;20435;-63
2022/01/17 11:05:38;;;;;;;39.33;27.20;;;;;;;6.51;100.00;100277.50;5011172;28;20117;-64
2022/01/17 11:08:05;;;;;;;31.63;23.00;;;;;;;6.87;100.00;100317.66;5011380;28;20136;-64
2022/01/17 11:10:39;;;;;;;29.90;21.30;;;;;;;6.85;100.00;100307.53;5011392;28;20026;-63
2022/01/17 11:13:07;;;;;;;34.78;24.65;;;;;;;6.80;100.00;100257.91;5009716;28;20026;-64
2022/01/17 11:15:34;;;;;;;33.78;23.48;;;;;;;7.31;100.00;100256.59;5011021;28;20038;-64
2022/01/17 11:18:04;;;;;;;32.38;23.52;;;;;;;7.45;100.00;100269.91;5010969;28;20070;-64
2022/01/17 11:20:33;;;;;;;27.30;19.13;;;;;;;7.51;100.00;100254.66;5011007;28;20014;-64
2022/01/17 11:23:01;;;;;;;37.33;23.90;;;;;;;7.51;100.00;100188.91;5010971;28;20456;-64
2022/01/17 11:25:30;;;;;;;32.15;20.38;;;;;;;7.97;100.00;100245.66;5010905;28;20092;-65
2022/01/17 11:27:56;;;;;;;29.73;22.00;;;;;;;7.49;100.00;100244.56;5010913;28;20072;-64
2022/01/17 11:30:23;;;;;;;35.28;24.15;;;;;;;7.45;100.00;100176.31;5010806;28;20022;-64
2022/01/17 11:32:50;;;;;;;36.60;26.10;;;;;;;8.08;100.00;100200.78;5010821;28;20132;-64